Time;durP1;ratioP1;P1;durP2;ratioP2;P2;SDS_P1;SDS_P2;PMS_P1;PMS_P2;Temp;Humidity;BMP_temperature;BMP_pressure;BME280_temperature;BME280_humidity;BME280_pressure;Samples;Min_cycle;Max_cycle;Signal;HPM_P1;HPM_P2
2021/01/29 00:00:27;;;;;;;10.93;9.83;;;10.20;99.90;;;;;;5090814;28;20259;-83
2021/01/29 00:02:55;;;;;;;15.83;10.77;;;10.30;99.90;;;;;;5093555;28;20217;-82
2021/01/29 00:05:23;;;;;;;13.50;10.93;;;10.30;99.90;;;;;;5094834;28;20205;-83
2021/01/29 00:07:49;;;;;;;16.60;11.13;;;10.40;99.90;;;;;;5094108;28;20583;-81
2021/01/29 00:10:17;;;;;;;12.93;9.83;;;10.40;99.90;;;;;;5094676;28;20251;-82
2021/01/29 00:12:44;;;;;;;13.77;11.30;;;10.40;99.90;;;;;;5094434;28;20232;-81
2021/01/29 00:15:14;;;;;;;12.20;9.47;;;10.50;99.90;;;;;;5094477;28;20208;-81
2021/01/29 00:17:41;;;;;;;13.37;9.70;;;10.60;99.90;;;;;;5094050;28;20269;-81
2021/01/29 00:20:12;;;;;;;14.20;10.50;;;10.60;99.90;;;;;;5093939;28;20213;-82
2021/01/29 00:22:38;;;;;;;11.83;9.73;;;10.60;99.90;;;;;;5094293;28;20318;-82
2021/01/29 00:25:05;;;;;;;11.30;9.80;;;10.60;99.90;;;;;;5094023;28;20209;-80
2021/01/29 00:27:32;;;;;;;12.83;10.20;;;10.60;99.90;;;;;;5094417;28;20225;-83
2021/01/29 00:29:58;;;;;;;10.33;9.10;;;10.70;99.90;;;;;;5094672;28;20241;-80
2021/01/29 00:32:25;;;;;;;9.47;8.57;;;10.70;99.90;;;;;;5094071;28;20634;-80
2021/01/29 00:34:52;;;;;;;9.80;8.80;;;10.80;99.90;;;;;;5094069;28;20213;-81
2021/01/29 00:37:19;;;;;;;11.10;9.73;;;10.80;99.90;;;;;;5094019;28;20648;-81
2021/01/29 00:39:45;;;;;;;14.90;10.53;;;10.80;99.90;;;;;;5093682;28;20248;-81
2021/01/29 00:42:11;;;;;;;12.50;10.20;;;10.80;99.90;;;;;;5094011;28;20208;-81
2021/01/29 00:44:38;;;;;;;12.73;10.80;;;10.70;99.90;;;;;;5093653;28;20202;-81
2021/01/29 00:47:04;;;;;;;12.23;10.37;;;10.60;99.90;;;;;;5093401;28;20278;-80
2021/01/29 00:49:31;;;;;;;14.20;11.00;;;10.50;99.90;;;;;;5093815;28;20205;-76
2021/01/29 00:51:58;;;;;;;11.30;10.10;;;10.40;99.90;;;;;;5094416;28;20209;-81
2021/01/29 00:54:24;;;;;;;12.37;11.07;;;10.30;99.90;;;;;;5093378;28;20616;-81
2021/01/29 00:56:51;;;;;;;14.60;11.23;;;10.30;99.90;;;;;;5093254;28;20630;-82
2021/01/29 00:59:17;;;;;;;11.63;10.50;;;10.30;99.90;;;;;;5093618;28;20214;-81
2021/01/29 01:01:44;;;;;;;13.03;11.50;;;10.30;99.90;;;;;;5093184;28;20202;-83
2021/01/29 01:04:11;;;;;;;15.33;11.30;;;10.20;99.90;;;;;;5093774;28;20213;-82
2021/01/29 01:06:38;;;;;;;12.47;10.23;;;10.30;99.90;;;;;;5093091;28;20201;-83
2021/01/29 01:09:05;;;;;;;11.97;9.50;;;10.30;99.90;;;;;;5093724;28;20210;-81
2021/01/29 01:11:32;;;;;;;11.10;9.67;;;10.40;99.90;;;;;;5093445;28;20212;-81
2021/01/29 01:14:00;;;;;;;12.90;9.73;;;10.60;99.90;;;;;;5093642;28;20204;-78
2021/01/29 01:16:26;;;;;;;14.33;10.43;;;10.70;99.90;;;;;;5093586;28;20210;-79
2021/01/29 01:18:53;;;;;;;13.80;10.47;;;10.70;99.90;;;;;;5093052;28;20222;-80
2021/01/29 01:21:19;;;;;;;12.40;10.40;;;10.70;99.90;;;;;;5093544;28;20337;-80
2021/01/29 01:23:46;;;;;;;10.70;9.47;;;10.70;99.90;;;;;;5092653;28;20202;-82
2021/01/29 01:26:13;;;;;;;13.67;9.17;;;10.70;99.90;;;;;;5093069;28;20235;-81
2021/01/29 01:28:40;;;;;;;9.53;8.53;;;10.70;99.90;;;;;;5092470;28;20270;-81
2021/01/29 01:31:06;;;;;;;10.10;8.87;;;10.80;99.90;;;;;;5093071;28;20205;-82
2021/01/29 01:33:32;;;;;;;14.30;11.43;;;10.90;99.90;;;;;;5092697;28;20205;-73
2021/01/29 01:35:59;;;;;;;10.97;9.57;;;10.90;99.90;;;;;;5093713;28;20661;-82
2021/01/29 01:38:25;;;;;;;10.03;9.03;;;10.90;99.90;;;;;;5092593;28;20665;-80
2021/01/29 01:40:52;;;;;;;10.10;8.90;;;10.80;99.90;;;;;;5092754;28;20205;-83
2021/01/29 01:43:19;;;;;;;11.23;10.10;;;10.90;99.90;;;;;;5092565;28;20689;-85
2021/01/29 01:46:02;;;;;;;11.67;9.00;;;10.90;99.90;;;;;;5092745;28;20232;-84
2021/01/29 01:48:51;;;;;;;9.30;8.20;;;11.00;99.90;;;;;;5093252;28;20253;-85
2021/01/29 01:51:32;;;;;;;11.30;8.73;;;11.00;99.90;;;;;;5069084;28;20590;-83
2021/01/29 01:54:01;;;;;;;11.53;8.00;;;11.00;99.90;;;;;;5093337;28;20213;-85
2021/01/29 01:56:35;;;;;;;12.23;8.53;;;11.00;99.90;;;;;;5092749;28;20202;-81
2021/01/29 01:59:07;;;;;;;10.63;8.33;;;11.00;99.90;;;;;;5092599;28;20613;-82
2021/01/29 02:01:35;;;;;;;8.03;6.70;;;11.10;99.90;;;;;;5092036;28;20198;-81
2021/01/29 02:04:03;;;;;;;9.73;7.80;;;11.10;99.90;;;;;;5092496;28;20734;-84
2021/01/29 02:06:36;;;;;;;7.77;6.97;;;11.10;99.90;;;;;;5093186;28;20209;-87
2021/01/29 02:09:05;;;;;;;9.87;7.97;;;11.10;99.90;;;;;;5093203;28;20202;-87
2021/01/29 02:11:31;;;;;;;9.43;6.47;;;11.00;99.90;;;;;;5092898;28;20209;-80
2021/01/29 02:13:58;;;;;;;11.57;7.43;;;11.00;99.90;;;;;;5093190;28;20589;-87
2021/01/29 02:16:33;;;;;;;12.73;8.33;;;11.00;99.90;;;;;;5092610;28;20668;-87
2021/01/29 02:19:52;;;;;;;8.40;7.53;;;11.00;99.90;;;;;;5092574;28;20639;-85
2021/01/29 02:22:46;;;;;;;8.17;7.23;;;11.00;99.90;;;;;;5066827;28;20248;-80
2021/01/29 02:26:03;;;;;;;8.83;7.93;;;10.90;99.90;;;;;;5091170;28;20204;-82
2021/01/29 02:28:55;;;;;;;8.40;7.60;;;10.70;99.90;;;;;;5091949;28;20656;-82
2021/01/29 02:31:47;;;;;;;10.80;9.70;;;10.70;99.90;;;;;;5091865;28;20209;-80
2021/01/29 02:35:10;;;;;;;8.67;7.80;;;10.80;99.90;;;;;;5091698;28;20801;-80
2021/01/29 02:38:06;;;;;;;10.10;7.27;;;10.80;99.90;;;;;;5066077;28;20592;-81
2021/01/29 02:40:38;;;;;;;10.60;8.40;;;10.70;99.90;;;;;;5091407;28;20217;-70
2021/01/29 02:43:36;;;;;;;9.30;8.30;;;10.60;99.90;;;;;;5091335;28;20233;-78
2021/01/29 02:46:09;;;;;;;9.40;8.40;;;10.40;99.90;;;;;;5076840;28;20643;-78
2021/01/29 02:48:47;;;;;;;14.13;9.17;;;10.30;99.90;;;;;;5070990;28;20257;-79
2021/01/29 02:51:18;;;;;;;10.30;9.03;;;10.30;99.90;;;;;;5071137;28;20255;-79
2021/01/29 02:53:54;;;;;;;14.17;9.83;;;10.20;99.90;;;;;;5070727;28;20750;-72
2021/01/29 02:56:28;;;;;;;10.43;9.43;;;10.00;99.90;;;;;;5070919;28;20224;-77
2021/01/29 02:59:02;;;;;;;12.57;9.43;;;10.20;99.90;;;;;;5070731;28;20217;-76
2021/01/29 03:01:36;;;;;;;12.10;10.33;;;10.20;99.90;;;;;;5071573;28;20245;-75
2021/01/29 03:04:06;;;;;;;12.27;9.63;;;10.20;99.90;;;;;;5070875;28;20263;-81
2021/01/29 03:06:39;;;;;;;12.17;10.80;;;10.30;99.90;;;;;;5070561;28;20206;-76
2021/01/29 03:09:11;;;;;;;11.50;10.20;;;10.30;99.90;;;;;;5070891;28;20237;-80
2021/01/29 03:11:42;;;;;;;12.40;10.37;;;10.20;99.90;;;;;;5070492;28;20241;-83
2021/01/29 03:14:15;;;;;;;14.43;9.60;;;10.30;99.90;;;;;;5071215;28;20206;-82
2021/01/29 03:16:49;;;;;;;11.37;8.87;;;10.40;99.90;;;;;;5070562;28;20208;-82
2021/01/29 03:19:24;;;;;;;11.83;9.13;;;10.50;99.90;;;;;;5070304;28;20253;-82
2021/01/29 03:21:57;;;;;;;11.73;9.87;;;10.30;99.90;;;;;;5070374;28;20240;-82
2021/01/29 03:24:27;;;;;;;11.57;9.83;;;10.20;99.90;;;;;;5070943;28;20209;-79
2021/01/29 03:26:59;;;;;;;13.37;9.70;;;10.20;99.90;;;;;;5070111;28;20213;-77
2021/01/29 03:29:31;;;;;;;9.40;8.40;;;10.20;99.90;;;;;;5070963;28;20207;-81
2021/01/29 03:32:01;;;;;;;10.53;9.37;;;10.20;99.90;;;;;;5070934;28;20220;-84
2021/01/29 03:34:33;;;;;;;15.37;10.93;;;10.20;99.90;;;;;;5071381;28;20229;-83
2021/01/29 03:37:07;;;;;;;13.10;9.27;;;10.30;99.90;;;;;;5070130;28;20684;-81
2021/01/29 03:39:37;;;;;;;10.80;9.63;;;10.50;99.90;;;;;;5070302;28;20210;-79
2021/01/29 03:42:22;;;;;;;12.37;10.40;;;10.50;99.90;;;;;;5070529;28;20684;-78
2021/01/29 03:44:54;;;;;;;11.60;9.13;;;10.60;99.90;;;;;;5070226;28;20244;-82
2021/01/29 03:47:29;;;;;;;11.70;10.13;;;10.60;99.90;;;;;;5070788;28;20237;-80
2021/01/29 03:50:09;;;;;;;10.67;8.67;;;10.40;99.90;;;;;;5070734;28;20240;-80
2021/01/29 03:52:46;;;;;;;12.70;10.07;;;10.40;99.90;;;;;;5070585;28;20685;-85
2021/01/29 03:55:20;;;;;;;11.93;9.67;;;10.50;99.90;;;;;;5070618;28;20263;-83
2021/01/29 03:58:02;;;;;;;10.90;9.80;;;10.40;99.90;;;;;;5070762;28;20279;-80
2021/01/29 04:00:36;;;;;;;15.40;8.83;;;10.60;99.90;;;;;;5071272;28;20225;-85
2021/01/29 04:03:10;;;;;;;15.27;9.10;;;10.60;99.90;;;;;;5070881;28;20244;-84
2021/01/29 04:05:45;;;;;;;15.90;9.13;;;10.70;99.90;;;;;;5070200;28;20206;-84
2021/01/29 04:08:19;;;;;;;11.47;9.30;;;10.70;99.90;;;;;;5070641;28;20248;-84
2021/01/29 04:10:49;;;;;;;12.23;9.57;;;10.80;99.90;;;;;;5070348;28;20229;-85
2021/01/29 04:13:21;;;;;;;11.00;8.60;;;10.80;99.90;;;;;;5070912;28;20255;-78
2021/01/29 04:15:50;;;;;;;15.20;8.00;;;10.80;99.90;;;;;;5070352;28;20206;-85
2021/01/29 04:18:21;;;;;;;11.60;8.60;;;10.80;99.90;;;;;;5070762;28;20257;-85
2021/01/29 04:20:50;;;;;;;11.57;7.97;;;10.80;99.90;;;;;;5070121;28;20621;-85
2021/01/29 04:23:26;;;;;;;10.90;8.50;;;10.80;99.90;;;;;;5070767;28;20283;-85
2021/01/29 04:25:59;;;;;;;9.77;8.10;;;10.80;99.90;;;;;;5070169;28;20642;-77
2021/01/29 04:28:30;;;;;;;9.53;8.53;;;10.80;99.90;;;;;;5070277;28;20234;-82
2021/01/29 04:31:02;;;;;;;10.27;8.60;;;10.90;99.90;;;;;;5069860;28;20669;-82
2021/01/29 04:33:34;;;;;;;9.77;8.23;;;11.00;99.90;;;;;;5070772;28;20207;-81
2021/01/29 04:36:04;;;;;;;13.27;8.73;;;11.00;99.90;;;;;;5070550;28;20241;-81
2021/01/29 04:38:38;;;;;;;10.03;8.17;;;11.00;99.90;;;;;;5070332;28;20289;-72
2021/01/29 04:41:18;;;;;;;17.83;9.13;;;11.10;99.90;;;;;;5070144;28;20229;-83
2021/01/29 04:43:59;;;;;;;10.50;7.67;;;11.10;99.90;;;;;;5069826;28;20287;-84
2021/01/29 04:46:43;;;;;;;10.07;7.07;;;11.10;99.90;;;;;;5070386;28;20209;-81
2021/01/29 04:49:21;;;;;;;9.63;6.30;;;11.30;99.90;;;;;;5073649;28;20240;-83
2021/01/29 04:52:27;;;;;;;6.40;5.70;;;11.40;99.90;;;;;;5073156;28;20222;-78
2021/01/29 04:55:36;;;;;;;7.93;5.97;;;11.40;99.90;;;;;;5072999;28;20241;-81
2021/01/29 04:58:05;;;;;;;10.77;6.47;;;11.50;99.90;;;;;;5049240;28;20210;-81
2021/01/29 05:01:01;;;;;;;6.23;5.57;;;11.50;99.90;;;;;;5073073;28;20692;-79
2021/01/29 05:03:55;;;;;;;9.03;6.67;;;11.60;99.90;;;;;;5073543;28;20206;-73
2021/01/29 05:06:49;;;;;;;8.77;5.53;;;11.60;99.90;;;;;;5059946;28;20203;-80
2021/01/29 05:09:44;;;;;;;6.87;5.50;;;11.60;99.90;;;;;;5081363;28;20280;-80
2021/01/29 05:12:40;;;;;;;12.67;7.00;;;11.60;99.90;;;;;;5075574;28;20678;-78
2021/01/29 05:15:28;;;;;;;10.53;7.97;;;11.60;99.90;;;;;;5084204;28;20210;-80
2021/01/29 05:18:36;;;;;;;11.20;7.47;;;11.50;99.90;;;;;;5065692;28;20596;-74
2021/01/29 05:21:34;;;;;;;9.37;6.93;;;11.50;99.90;;;;;;5059691;28;20248;-80
2021/01/29 05:24:32;;;;;;;9.17;7.27;;;11.50;99.90;;;;;;5071561;28;20631;-75
2021/01/29 05:27:17;;;;;;;7.70;6.53;;;11.50;99.90;;;;;;5079757;28;20209;-79
2021/01/29 05:30:00;;;;;;;7.33;6.40;;;11.50;99.90;;;;;;5083491;28;20201;-79
2021/01/29 05:32:58;;;;;;;9.03;5.50;;;11.50;99.90;;;;;;5078270;28;20673;-77
2021/01/29 05:35:46;;;;;;;8.20;6.30;;;11.50;99.90;;;;;;5077303;28;20265;-79
2021/01/29 05:38:31;;;;;;;6.50;5.50;;;11.50;99.90;;;;;;5080204;28;20212;-79
2021/01/29 05:41:35;;;;;;;7.60;6.27;;;11.50;99.90;;;;;;5076089;28;20256;-80
2021/01/29 05:44:24;;;;;;;10.50;5.87;;;11.50;99.90;;;;;;5067199;28;20198;-77
2021/01/29 05:47:17;;;;;;;8.83;5.83;;;11.50;99.90;;;;;;5073903;28;20198;-80
2021/01/29 05:49:52;;;;;;;8.67;6.70;;;11.60;99.90;;;;;;5073218;28;20214;-79
2021/01/29 05:52:55;;;;;;;7.33;6.53;;;11.60;99.90;;;;;;5073928;28;20205;-82
2021/01/29 05:55:41;;;;;;;10.03;6.57;;;11.60;99.90;;;;;;5072584;28;20205;-83
2021/01/29 05:58:41;;;;;;;8.33;6.17;;;11.60;99.90;;;;;;5080577;28;20284;-84
2021/01/29 06:01:33;;;;;;;8.30;7.47;;;11.60;99.90;;;;;;5070177;28;20206;-83
2021/01/29 06:04:28;;;;;;;8.73;6.30;;;11.60;99.90;;;;;;5089610;28;20202;-81
2021/01/29 06:07:19;;;;;;;8.73;6.53;;;11.70;99.90;;;;;;5089572;28;20218;-83
2021/01/29 06:10:13;;;;;;;9.93;5.53;;;11.60;99.90;;;;;;5067879;28;20221;-86
2021/01/29 06:12:58;;;;;;;7.40;5.97;;;11.70;99.90;;;;;;5089884;28;20262;-85
2021/01/29 06:15:56;;;;;;;8.52;5.95;;;11.70;99.90;;;;;;5076602;28;20218;-76
2021/01/29 06:18:41;;;;;;;9.60;7.38;;;11.70;99.90;;;;;;5058863;28;20218;-83
2021/01/29 06:21:34;;;;;;;8.63;6.00;;;11.70;99.90;;;;;;5090770;28;20239;-82
2021/01/29 06:24:21;;;;;;;8.87;6.37;;;11.70;99.90;;;;;;5071800;28;20623;-82
2021/01/29 06:27:26;;;;;;;10.15;7.43;;;11.70;99.90;;;;;;5090353;28;20206;-81
2021/01/29 06:30:37;;;;;;;9.75;7.43;;;11.70;99.90;;;;;;5033357;28;20663;-81
2021/01/29 06:33:37;;;;;;;9.70;7.53;;;11.70;99.90;;;;;;5057303;28;20205;-76
2021/01/29 06:36:17;;;;;;;12.77;8.50;;;11.70;99.90;;;;;;5069326;28;20198;-81
2021/01/29 06:39:15;;;;;;;9.40;7.30;;;11.70;99.90;;;;;;5089586;28;20209;-82
2021/01/29 06:42:23;;;;;;;9.77;6.90;;;11.70;99.90;;;;;;5067766;28;20202;-82
2021/01/29 06:45:32;;;;;;;14.67;8.97;;;11.70;99.90;;;;;;5069527;28;20202;-80
2021/01/29 06:48:47;;;;;;;11.35;7.07;;;11.70;99.90;;;;;;5079272;28;20609;-79
2021/01/29 06:51:43;;;;;;;10.00;7.10;;;11.70;99.90;;;;;;5084405;28;20217;-78
2021/01/29 06:54:25;;;;;;;8.87;6.87;;;11.70;99.90;;;;;;5080258;28;20210;-76
2021/01/29 06:57:24;;;;;;;10.43;7.13;;;11.80;99.90;;;;;;5079160;28;20214;-81
2021/01/29 07:00:37;;;;;;;11.70;6.77;;;11.80;99.90;;;;;;5069776;28;20198;-81
2021/01/29 07:03:41;;;;;;;11.33;8.20;;;11.80;99.90;;;;;;5077775;28;20633;-81
2021/01/29 07:06:44;;;;;;;11.80;7.40;;;11.80;99.90;;;;;;5072611;28;20204;-79
2021/01/29 07:09:20;;;;;;;8.43;7.03;;;11.80;99.90;;;;;;5082731;28;20271;-80
2021/01/29 07:12:03;;;;;;;12.03;7.70;;;11.80;99.90;;;;;;5073637;28;20282;-81
2021/01/29 07:14:44;;;;;;;12.47;7.90;;;11.80;99.90;;;;;;5070154;28;20209;-80
2021/01/29 07:17:15;;;;;;;8.50;7.07;;;11.90;99.90;;;;;;5076838;28;20206;-80
2021/01/29 07:19:59;;;;;;;9.37;6.30;;;11.90;99.90;;;;;;5082868;28;20594;-80
2021/01/29 07:22:47;;;;;;;14.43;7.53;;;12.00;99.90;;;;;;5080422;28;20206;-80
2021/01/29 07:25:20;;;;;;;9.87;6.30;;;12.10;99.90;;;;;;5080488;28;20206;-77
2021/01/29 07:27:59;;;;;;;8.73;5.97;;;12.10;99.90;;;;;;5081634;28;20228;-82
2021/01/29 07:30:51;;;;;;;9.30;6.97;;;12.20;99.90;;;;;;5079776;28;20208;-83
2021/01/29 07:33:26;;;;;;;7.17;5.93;;;12.20;99.90;;;;;;5068946;28;20282;-81
2021/01/29 07:36:24;;;;;;;10.63;6.80;;;12.20;99.90;;;;;;5078425;28;20205;-82
2021/01/29 07:39:18;;;;;;;13.27;7.00;;;12.20;99.90;;;;;;5079938;28;20580;-81
2021/01/29 07:41:56;;;;;;;12.88;8.35;;;12.30;99.90;;;;;;5070594;28;20587;-83
2021/01/29 07:44:35;;;;;;;9.85;7.38;;;12.30;99.90;;;;;;5078597;28;20206;-80
2021/01/29 07:47:34;;;;;;;8.23;6.78;;;12.30;99.90;;;;;;5082589;28;20208;-82
2021/01/29 07:50:20;;;;;;;8.45;5.53;;;12.30;99.90;;;;;;5082790;28;20580;-82
2021/01/29 07:52:57;;;;;;;7.83;5.23;;;12.30;99.90;;;;;;5077801;28;20202;-79
2021/01/29 07:55:27;;;;;;;8.07;6.70;;;12.30;99.90;;;;;;5067907;28;20202;-79
2021/01/29 07:58:16;;;;;;;9.07;7.03;;;12.40;99.90;;;;;;5070116;28;20225;-80
2021/01/29 08:01:02;;;;;;;8.68;6.30;;;12.40;99.90;;;;;;5069563;28;20285;-82
2021/01/29 08:03:54;;;;;;;9.82;5.55;;;12.40;99.90;;;;;;5071258;28;20237;-83
2021/01/29 08:06:24;;;;;;;8.43;5.60;;;12.50;99.90;;;;;;5059057;28;20572;-77
2021/01/29 08:08:57;;;;;;;10.95;5.88;;;12.50;99.90;;;;;;5062732;28;20257;-83
2021/01/29 08:11:25;;;;;;;12.60;6.38;;;12.50;99.90;;;;;;5064773;28;20247;-76
2021/01/29 08:14:33;;;;;;;7.53;5.70;;;12.50;99.90;;;;;;5068797;28;20246;-78
2021/01/29 08:17:17;;;;;;;8.13;4.80;;;12.60;99.90;;;;;;5012536;28;20200;-77
2021/01/29 08:19:56;;;;;;;4.57;3.77;;;12.80;99.90;;;;;;5063601;28;20246;-77
2021/01/29 08:22:48;;;;;;;3.63;3.33;;;12.80;99.90;;;;;;5068671;28;20283;-77
2021/01/29 08:25:42;;;;;;;4.18;3.78;;;12.80;99.90;;;;;;5061812;28;20701;-74
2021/01/29 08:28:37;;;;;;;4.25;3.17;;;12.90;99.90;;;;;;5039170;28;20231;-73
2021/01/29 08:31:31;;;;;;;3.97;3.13;;;13.00;99.90;;;;;;5077961;28;20612;-75
2021/01/29 08:34:30;;;;;;;4.18;2.78;;;13.10;99.90;;;;;;5067501;28;20723;-73
2021/01/29 08:37:32;;;;;;;3.72;2.58;;;13.40;99.90;;;;;;5063377;28;20198;-74
2021/01/29 08:40:11;;;;;;;6.70;2.55;;;13.50;99.90;;;;;;5071902;28;20655;-75
2021/01/29 08:43:09;;;;;;;4.55;2.30;;;13.40;99.90;;;;;;5069285;28;20198;-77
2021/01/29 08:45:48;;;;;;;4.22;2.00;;;13.40;99.90;;;;;;5061124;28;20203;-76
2021/01/29 08:48:32;;;;;;;13.85;2.80;;;13.60;99.90;;;;;;5069064;28;20228;-79
2021/01/29 08:51:14;;;;;;;5.35;1.95;;;13.70;99.90;;;;;;5084252;28;20674;-77
2021/01/29 08:54:23;;;;;;;6.88;2.72;;;13.60;99.90;;;;;;5063643;28;20234;-74
2021/01/29 08:57:01;;;;;;;5.05;1.75;;;13.60;99.90;;;;;;5082256;28;20588;-74
2021/01/29 08:59:31;;;;;;;6.50;2.15;;;13.30;99.90;;;;;;5093003;28;20206;-80
2021/01/29 09:02:07;;;;;;;8.52;2.50;;;13.30;99.90;;;;;;5073157;28;20640;-76
2021/01/29 09:04:41;;;;;;;10.77;2.67;;;13.20;99.90;;;;;;5061969;28;20645;-77
2021/01/29 09:07:16;;;;;;;11.30;3.15;;;13.20;99.90;;;;;;5060684;28;20213;-72
2021/01/29 09:09:43;;;;;;;5.82;2.67;;;13.20;99.90;;;;;;5066088;28;20205;-77
2021/01/29 09:12:17;;;;;;;5.57;2.10;;;13.30;99.90;;;;;;5066653;28;20215;-75
2021/01/29 09:14:54;;;;;;;7.97;2.00;;;13.40;99.90;;;;;;5071575;28;20229;-76
2021/01/29 09:17:25;;;;;;;9.20;2.22;;;13.60;99.90;;;;;;5070280;28;20677;-78
2021/01/29 09:19:56;;;;;;;12.85;2.33;;;13.80;99.90;;;;;;5062519;28;20254;-74
2021/01/29 09:22:29;;;;;;;6.50;2.05;;;14.40;99.90;;;;;;5067515;28;20208;-74
2021/01/29 09:25:03;;;;;;;9.57;2.30;;;15.10;99.90;;;;;;5067046;28;20283;-74
2021/01/29 09:27:51;;;;;;;9.50;2.28;;;16.80;99.90;;;;;;5075425;28;20237;-74
2021/01/29 09:30:23;;;;;;;5.85;2.35;;;17.20;99.90;;;;;;5080875;28;20214;-74
2021/01/29 09:32:55;;;;;;;11.30;2.88;;;16.90;99.90;;;;;;5082442;28;20284;-74
2021/01/29 09:35:39;;;;;;;11.90;2.60;;;16.10;99.90;;;;;;5075742;28;20239;-74
2021/01/29 09:38:10;;;;;;;11.75;2.72;;;15.30;99.90;;;;;;5066424;28;20219;-74
2021/01/29 09:40:46;;;;;;;14.23;3.67;;;14.90;99.90;;;;;;5072928;28;20210;-74
2021/01/29 09:43:23;;;;;;;9.57;2.40;;;14.50;99.90;;;;;;5070730;28;20201;-74
2021/01/29 09:45:54;;;;;;;9.60;2.83;;;14.30;99.90;;;;;;5065887;28;20263;-74
2021/01/29 09:48:25;;;;;;;9.20;3.38;;;14.20;99.90;;;;;;5079088;28;20218;-74
2021/01/29 09:51:04;;;;;;;8.80;2.58;;;14.20;99.90;;;;;;5085469;28;20232;-73
2021/01/29 09:53:34;;;;;;;7.68;2.40;;;14.30;99.90;;;;;;5060885;28;20206;-74
2021/01/29 09:56:05;;;;;;;8.10;3.17;;;14.10;99.90;;;;;;5072469;28;20203;-74
2021/01/29 09:58:41;;;;;;;11.50;4.05;;;14.10;99.90;;;;;;5062146;28;20217;-74
2021/01/29 10:01:11;;;;;;;17.55;3.72;;;14.30;99.90;;;;;;5061123;28;20620;-74
2021/01/29 10:03:51;;;;;;;8.73;2.60;;;14.30;99.90;;;;;;5071412;28;20202;-74
2021/01/29 10:06:20;;;;;;;11.43;2.85;;;14.20;99.90;;;;;;5075609;28;20202;-73
2021/01/29 10:08:52;;;;;;;9.23;2.80;;;14.40;99.90;;;;;;5073178;28;20244;-74
2021/01/29 10:11:21;;;;;;;8.07;2.95;;;14.40;99.90;;;;;;5069460;28;20209;-74
2021/01/29 10:14:03;;;;;;;12.68;2.85;;;14.50;99.90;;;;;;5067953;28;20267;-73
2021/01/29 10:16:51;;;;;;;14.75;3.60;;;14.40;99.90;;;;;;5074337;28;20242;-74
2021/01/29 10:19:30;;;;;;;11.02;3.72;;;14.50;99.90;;;;;;5069581;28;20280;-74
2021/01/29 10:22:13;;;;;;;7.63;2.17;;;14.70;99.90;;;;;;5064401;28;20681;-74
2021/01/29 10:24:48;;;;;;;13.73;4.32;;;14.80;99.90;;;;;;5068899;28;20771;-76
2021/01/29 10:27:22;;;;;;;6.53;2.63;;;14.50;99.90;;;;;;5065621;28;20203;-74
2021/01/29 10:29:58;;;;;;;12.93;3.53;;;14.70;99.90;;;;;;5058712;28;20241;-76
2021/01/29 10:32:29;;;;;;;10.00;2.88;;;14.80;99.90;;;;;;5061016;28;20677;-77
2021/01/29 10:35:03;;;;;;;11.48;3.47;;;14.90;99.90;;;;;;5064433;28;20248;-75
2021/01/29 10:37:34;;;;;;;14.15;2.33;;;14.80;99.90;;;;;;5088743;28;20665;-77
2021/01/29 10:40:23;;;;;;;7.45;3.38;;;14.80;99.90;;;;;;5055288;28;20692;-70
2021/01/29 10:42:59;;;;;;;8.40;2.92;;;15.00;99.90;;;;;;5067283;28;20741;-76
2021/01/29 10:45:45;;;;;;;4.97;2.38;;;14.80;99.90;;;;;;5071744;28;20206;-77
2021/01/29 10:48:31;;;;;;;12.80;3.00;;;15.00;99.90;;;;;;5072495;28;20230;-77
2021/01/29 10:51:04;;;;;;;11.45;2.88;;;15.00;99.90;;;;;;5072156;28;20669;-76
2021/01/29 10:53:32;;;;;;;8.32;3.15;;;14.90;99.90;;;;;;5072157;28;20206;-74
2021/01/29 10:56:01;;;;;;;8.48;2.97;;;14.70;99.90;;;;;;5071822;28;20223;-75
2021/01/29 10:58:49;;;;;;;5.07;3.10;;;15.10;99.90;;;;;;5071705;28;20202;-76
2021/01/29 11:01:28;;;;;;;11.05;2.55;;;15.50;99.90;;;;;;5071197;28;20210;-75
2021/01/29 11:04:03;;;;;;;9.65;3.33;;;15.60;99.90;;;;;;5070450;28;20279;-75
2021/01/29 11:06:45;;;;;;;10.90;3.85;;;15.40;99.90;;;;;;5071170;28;20742;-76
2021/01/29 11:09:23;;;;;;;15.90;4.32;;;15.50;99.90;;;;;;5063977;28;20279;-78
2021/01/29 11:12:07;;;;;;;6.40;2.78;;;15.40;99.90;;;;;;5057494;28;20229;-77
2021/01/29 11:14:37;;;;;;;12.43;3.20;;;15.70;99.90;;;;;;5058229;28;20199;-75
2021/01/29 11:17:07;;;;;;;10.25;2.90;;;15.80;99.90;;;;;;5056772;28;20213;-74
2021/01/29 11:19:38;;;;;;;9.68;2.45;;;16.10;99.90;;;;;;5059020;28;20693;-75
2021/01/29 11:22:17;;;;;;;13.23;2.88;;;16.10;99.90;;;;;;5056979;28;20633;-76
2021/01/29 11:25:05;;;;;;;10.57;3.45;;;16.20;99.90;;;;;;5056851;28;20213;-74
2021/01/29 11:27:37;;;;;;;13.85;3.10;;;16.20;99.90;;;;;;5060962;28;20210;-71
2021/01/29 11:30:12;;;;;;;4.60;2.30;;;16.10;99.90;;;;;;5058177;28;20195;-70
2021/01/29 11:32:41;;;;;;;9.57;2.83;;;16.10;99.90;;;;;;5058544;28;20656;-77
2021/01/29 11:35:41;;;;;;;9.02;2.25;;;16.00;99.90;;;;;;5056541;28;20746;-72
2021/01/29 11:38:43;;;;;;;14.85;3.15;;;16.10;99.90;;;;;;5056882;28;20210;-78
2021/01/29 11:41:20;;;;;;;8.85;3.08;;;16.10;99.90;;;;;;5044652;28;20202;-76
2021/01/29 11:43:53;;;;;;;6.28;2.78;;;16.00;99.90;;;;;;5056946;28;20782;-71
2021/01/29 11:46:27;;;;;;;6.15;2.30;;;15.90;99.90;;;;;;5060939;28;20282;-75
2021/01/29 11:49:05;;;;;;;6.63;1.83;;;16.00;99.90;;;;;;5057762;28;20226;-71
2021/01/29 11:51:36;;;;;;;11.52;2.88;;;15.90;99.90;;;;;;5061929;28;20668;-74
2021/01/29 11:54:13;;;;;;;6.32;2.30;;;15.80;99.90;;;;;;5065199;28;20246;-75
2021/01/29 11:56:53;;;;;;;7.82;2.38;;;15.70;99.90;;;;;;5081059;28;20588;-77
2021/01/29 11:59:30;;;;;;;9.13;2.33;;;15.60;99.90;;;;;;5066770;28;20583;-76
2021/01/29 12:02:05;;;;;;;5.50;2.40;;;15.70;99.90;;;;;;5079662;28;20583;-74
2021/01/29 12:04:39;;;;;;;9.68;2.22;;;15.80;99.90;;;;;;5089078;28;20205;-72
2021/01/29 12:07:14;;;;;;;8.82;2.85;;;15.90;99.90;;;;;;5086948;28;20620;-76
2021/01/29 12:09:49;;;;;;;6.70;2.65;;;16.00;99.90;;;;;;5088777;28;20228;-76
2021/01/29 12:12:23;;;;;;;4.43;1.92;;;16.10;99.90;;;;;;5087169;28;20712;-74
2021/01/29 12:15:15;;;;;;;9.45;2.53;;;16.10;99.90;;;;;;5088489;28;20733;-75
2021/01/29 12:17:51;;;;;;;5.85;2.22;;;16.20;99.90;;;;;;5063330;28;20206;-77
2021/01/29 12:20:23;;;;;;;11.00;2.83;;;16.30;99.90;;;;;;5064364;28;20217;-69
2021/01/29 12:23:02;;;;;;;4.13;2.33;;;16.20;99.90;;;;;;5087967;28;20198;-78
2021/01/29 12:25:41;;;;;;;7.65;2.60;;;16.10;99.90;;;;;;5083905;28;20197;-77
2021/01/29 12:28:21;;;;;;;8.15;2.70;;;16.10;99.90;;;;;;5064448;28;20878;-74
2021/01/29 12:31:00;;;;;;;11.07;2.65;;;16.10;99.90;;;;;;5085825;28;20197;-76
2021/01/29 12:33:28;;;;;;;8.05;2.15;;;16.00;99.90;;;;;;5088381;28;20616;-70
2021/01/29 12:35:58;;;;;;;11.70;3.15;;;16.20;99.90;;;;;;5085465;28;22217;-78
2021/01/29 12:38:36;;;;;;;8.90;2.55;;;16.20;99.90;;;;;;5088623;28;20320;-76
2021/01/29 12:41:10;;;;;;;10.98;3.00;;;16.10;99.90;;;;;;5086068;28;20202;-77
2021/01/29 12:43:44;;;;;;;8.07;2.70;;;16.10;99.90;;;;;;5087524;28;20586;-79
2021/01/29 12:46:20;;;;;;;8.10;2.67;;;16.10;99.90;;;;;;5075415;28;20678;-75
2021/01/29 12:48:56;;;;;;;10.75;2.78;;;15.90;99.90;;;;;;5087937;28;20586;-79
2021/01/29 12:51:28;;;;;;;9.88;2.50;;;15.80;99.90;;;;;;5085841;28;20259;-78
2021/01/29 12:54:17;;;;;;;6.30;2.17;;;15.80;99.90;;;;;;5079537;28;20230;-76
2021/01/29 12:56:56;;;;;;;8.60;2.35;;;15.80;99.90;;;;;;5064343;28;20219;-79
2021/01/29 12:59:45;;;;;;;8.90;2.65;;;16.20;99.90;;;;;;5069974;28;20252;-77
2021/01/29 13:02:43;;;;;;;4.25;2.60;;;16.00;99.90;;;;;;5069678;28;20210;-76
2021/01/29 13:05:18;;;;;;;7.53;2.08;;;16.20;99.90;;;;;;5049191;28;20693;-78
2021/01/29 13:07:55;;;;;;;6.95;2.63;;;16.20;99.90;;;;;;5057835;28;20628;-80
2021/01/29 13:10:28;;;;;;;11.65;2.67;;;16.20;99.90;;;;;;5069223;28;20217;-80
2021/01/29 13:13:08;;;;;;;11.80;2.85;;;16.30;99.90;;;;;;5080889;28;20201;-78
2021/01/29 13:15:52;;;;;;;12.55;3.15;;;16.50;99.90;;;;;;5075442;28;20201;-79
2021/01/29 13:18:25;;;;;;;10.75;3.17;;;16.60;99.90;;;;;;5083820;28;20210;-78
2021/01/29 13:20:55;;;;;;;9.75;2.92;;;16.60;99.90;;;;;;5080149;28;20245;-75
2021/01/29 13:23:38;;;;;;;7.75;3.72;;;16.70;99.90;;;;;;5073699;28;20674;-75
2021/01/29 13:26:07;;;;;;;11.48;3.28;;;16.80;99.90;;;;;;5086843;28;20208;-75
2021/01/29 13:28:37;;;;;;;9.70;3.42;;;16.90;99.90;;;;;;5075489;28;20222;-70
2021/01/29 13:31:20;;;;;;;5.65;2.20;;;16.60;99.90;;;;;;5074978;28;20209;-76
2021/01/29 13:33:50;;;;;;;4.28;2.25;;;16.40;99.90;;;;;;5072022;28;20289;-71
2021/01/29 13:36:22;;;;;;;5.38;2.35;;;16.50;99.90;;;;;;5071578;28;20195;-76
2021/01/29 13:38:49;;;;;;;8.65;2.33;;;16.40;99.90;;;;;;5076494;28;20194;-74
2021/01/29 13:41:18;;;;;;;8.60;2.58;;;15.90;99.90;;;;;;5079544;28;20206;-79